createdAt,value
2018-04-02T00:02:20.919Z,70.48
2018-04-02T00:04:49.228Z,70.68
2018-04-02T00:07:17.580Z,70.81
2018-04-02T00:09:45.887Z,71.38
2018-04-02T00:12:14.229Z,71.49
2018-04-02T00:14:42.539Z,71.89
2018-04-02T00:17:10.847Z,71.86
2018-04-02T00:19:39.240Z,71.99
2018-04-02T00:22:07.546Z,71.72
2018-04-02T00:24:35.878Z,72.08
2018-04-02T00:27:04.197Z,72.43
2018-04-02T00:29:32.511Z,72.33
2018-04-02T00:32:00.832Z,72.29
2018-04-02T00:34:29.157Z,72.26
2018-04-02T00:36:57.483Z,72.16
2018-04-02T00:39:25.831Z,72.33
2018-04-02T00:41:54.134Z,72.30
2018-04-02T00:44:22.475Z,72.24
2018-04-02T00:46:50.782Z,72.31
2018-04-02T00:49:19.175Z,72.08
2018-04-02T00:51:47.483Z,72.39
2018-04-02T00:54:15.823Z,72.25
2018-04-02T00:56:44.203Z,72.19
2018-04-02T00:59:12.538Z,71.89
2018-04-02T01:01:40.862Z,71.83
2018-04-02T01:04:09.240Z,71.75
2018-04-02T01:06:37.560Z,71.92
2018-04-02T01:09:05.868Z,71.70
2018-04-02T01:11:34.220Z,71.86
2018-04-02T01:14:02.528Z,71.60
2018-04-02T01:16:31.075Z,71.53
2018-04-02T01:18:59.363Z,71.43
2018-04-02T01:21:27.767Z,71.46
2018-04-02T01:23:56.068Z,71.55
2018-04-02T01:26:24.441Z,70.99
2018-04-02T01:28:52.742Z,71.12
2018-04-02T01:31:21.099Z,71.26
2018-04-02T01:33:49.398Z,71.45
2018-04-02T01:36:17.751Z,71.52
2018-04-02T01:38:46.074Z,71.76
2018-04-02T01:41:14.500Z,71.53
2018-04-02T01:43:42.816Z,71.74
2018-04-02T01:46:11.154Z,71.97
2018-04-02T01:48:39.470Z,71.71
2018-04-02T01:51:07.787Z,71.82
2018-04-02T01:53:36.195Z,71.56
2018-04-02T01:56:04.587Z,71.61
2018-04-02T01:58:32.947Z,71.91
2018-04-02T02:01:01.302Z,71.76
2018-04-02T02:03:29.710Z,72.00
2018-04-02T02:05:58.020Z,72.22
2018-04-02T02:08:26.357Z,72.11
2018-04-02T02:10:54.734Z,72.09
2018-04-02T02:13:23.122Z,72.28
2018-04-02T02:15:51.492Z,72.42
2018-04-02T02:18:19.838Z,72.81
2018-04-02T02:20:48.134Z,72.06
2018-04-02T02:23:16.477Z,72.02
2018-04-02T02:25:44.774Z,71.79
2018-04-02T02:28:13.284Z,71.80
2018-04-02T02:30:41.585Z,71.94
2018-04-02T02:33:09.921Z,71.64
2018-04-02T02:35:38.235Z,71.86
2018-04-02T02:38:06.599Z,71.78
2018-04-02T02:40:34.903Z,72.11
2018-04-02T02:43:03.264Z,71.89
2018-04-02T02:45:31.582Z,71.79
2018-04-02T02:47:59.918Z,71.48
2018-04-02T02:50:28.310Z,71.55
2018-04-02T02:52:56.666Z,72.05
2018-04-02T02:55:25.093Z,71.97
2018-04-02T02:57:53.398Z,71.87
2018-04-02T03:00:21.802Z,71.67
2018-04-02T03:02:50.233Z,71.53
2018-04-02T03:05:18.573Z,71.91
2018-04-02T03:07:46.902Z,71.49
2018-04-02T03:10:15.228Z,71.39
2018-04-02T03:12:43.589Z,71.38
2018-04-02T03:15:11.915Z,71.12
2018-04-02T03:17:40.265Z,71.29
2018-04-02T03:20:08.599Z,71.32
2018-04-02T03:22:36.919Z,71.48
2018-04-02T03:25:05.274Z,71.49
2018-04-02T03:27:33.576Z,71.52
2018-04-02T03:30:01.903Z,71.32
2018-04-02T03:32:30.214Z,71.37
2018-04-02T03:34:58.545Z,71.21
2018-04-02T03:37:26.836Z,71.53
2018-04-02T03:39:55.179Z,71.59
2018-04-02T03:42:23.511Z,71.80
2018-04-02T03:44:51.886Z,71.54
2018-04-02T03:47:20.211Z,71.52
2018-04-02T03:49:48.547Z,71.88
2018-04-02T03:52:16.915Z,71.52
2018-04-02T03:54:45.232Z,71.51
2018-04-02T03:57:13.671Z,71.55
2018-04-02T03:59:41.980Z,71.12
2018-04-02T04:02:10.307Z,71.12
2018-04-02T04:04:38.606Z,70.81
2018-04-02T04:07:06.982Z,71.22
2018-04-02T04:09:35.289Z,71.36
2018-04-02T04:12:03.627Z,71.45
2018-04-02T04:14:31.933Z,71.48
2018-04-02T04:17:00.268Z,71.64
2018-04-02T04:19:28.651Z,71.65
2018-04-02T04:21:57.047Z,71.52
2018-04-02T04:24:25.362Z,71.52
2018-04-02T04:26:53.682Z,71.44
2018-04-02T04:29:21.980Z,71.77
2018-04-02T04:31:50.319Z,71.94
2018-04-02T04:34:18.633Z,72.17
2018-04-02T04:36:46.990Z,72.25
2018-04-02T04:39:15.396Z,72.97
2018-04-02T04:41:43.730Z,73.12
2018-04-02T04:44:12.028Z,72.24
2018-04-02T04:46:40.419Z,71.77
2018-04-02T04:49:08.804Z,72.13
2018-04-02T04:51:37.260Z,72.62
2018-04-02T04:54:05.561Z,73.38
2018-04-02T04:56:33.935Z,74.25
2018-04-02T04:59:02.288Z,74.37
2018-04-02T05:01:30.691Z,74.56
2018-04-02T05:03:59.021Z,74.82
2018-04-02T05:06:27.331Z,75.04
2018-04-02T05:08:55.675Z,75.42
2018-04-02T05:11:24.016Z,76.16
2018-04-02T05:13:52.346Z,76.50
2018-04-02T05:16:20.762Z,76.17
2018-04-02T05:18:49.102Z,76.48
2018-04-02T05:21:17.498Z,76.44
2018-04-02T05:23:45.838Z,75.55
2018-04-02T05:26:14.138Z,75.87
2018-04-02T05:28:42.467Z,75.91
2018-04-02T05:31:10.792Z,75.44
2018-04-02T05:33:39.151Z,75.19
2018-04-02T05:36:07.483Z,75.65
2018-04-02T05:38:35.819Z,75.70
2018-04-02T05:41:04.120Z,75.43
2018-04-02T05:43:32.707Z,75.16
2018-04-02T05:46:01.006Z,74.92
2018-04-02T05:48:29.382Z,74.37
2018-04-02T05:50:57.709Z,74.07
2018-04-02T05:53:26.037Z,74.52
2018-04-02T05:55:54.378Z,74.58
2018-04-02T05:58:22.690Z,73.36
2018-04-02T06:00:51.033Z,72.70
2018-04-02T06:03:19.427Z,72.06
2018-04-02T06:05:47.816Z,72.04
2018-04-02T06:08:16.119Z,71.52
2018-04-02T06:10:44.471Z,71.10
2018-04-02T06:13:12.863Z,70.50
2018-04-02T06:15:41.183Z,70.05
2018-04-02T06:18:09.495Z,69.77
2018-04-02T06:20:37.824Z,69.70
2018-04-02T06:23:06.198Z,68.58
2018-04-02T06:25:34.526Z,68.54
2018-04-02T06:28:02.836Z,67.84
2018-04-02T06:30:31.190Z,67.34
2018-04-02T06:32:59.506Z,67.66
2018-04-02T06:35:27.829Z,66.92
2018-04-02T06:37:56.223Z,66.93
2018-04-02T06:40:24.698Z,66.19
2018-04-02T06:42:53.092Z,65.53
2018-04-02T06:45:21.403Z,65.22
2018-04-02T06:47:50.501Z,64.86
2018-04-02T06:50:18.832Z,64.46
2018-04-02T06:52:47.207Z,64.20
2018-04-02T06:55:15.627Z,63.20
2018-04-02T06:57:43.963Z,63.03
2018-04-02T07:00:12.273Z,63.27
2018-04-02T07:02:40.639Z,62.54
2018-04-02T07:05:08.946Z,62.84
2018-04-02T07:07:37.374Z,62.26
2018-04-02T07:10:05.684Z,60.80
2018-04-02T07:12:34.087Z,60.39
2018-04-02T07:15:02.382Z,60.60
2018-04-02T07:17:30.788Z,60.10
2018-04-02T07:19:59.094Z,60.16
2018-04-02T07:22:27.446Z,59.41
2018-04-02T07:24:55.749Z,58.73
2018-04-02T07:27:24.094Z,59.03
2018-04-02T07:29:52.390Z,57.56
2018-04-02T07:32:20.726Z,57.58
2018-04-02T07:34:49.147Z,57.39
2018-04-02T07:37:17.512Z,57.37
2018-04-02T07:39:45.886Z,57.17
2018-04-02T07:42:14.255Z,56.75
2018-04-02T07:44:42.677Z,56.49
2018-04-02T07:47:10.973Z,56.85
2018-04-02T07:49:39.341Z,56.27
2018-04-02T07:52:07.645Z,55.72
2018-04-02T07:54:36.055Z,55.02
2018-04-02T07:57:04.436Z,54.98
2018-04-02T07:59:32.812Z,55.03
2018-04-02T08:02:01.114Z,55.14
2018-04-02T08:04:29.458Z,53.65
2018-04-02T08:06:57.771Z,53.10
2018-04-02T08:09:26.127Z,53.69
2018-04-02T08:11:54.501Z,53.78
2018-04-02T08:14:22.833Z,53.83
2018-04-02T08:16:51.135Z,53.58
2018-04-02T08:19:19.477Z,53.34
2018-04-02T08:21:47.823Z,53.29
2018-04-02T08:24:16.181Z,53.58
2018-04-02T08:26:44.519Z,53.64
2018-04-02T08:29:12.838Z,53.72
2018-04-02T08:31:41.327Z,53.26
2018-04-02T08:34:09.653Z,53.39
2018-04-02T08:36:38.076Z,52.92
2018-04-02T08:39:06.374Z,52.90
2018-04-02T08:41:34.716Z,52.65
2018-04-02T08:44:03.022Z,53.15
2018-04-02T08:46:31.345Z,52.73
2018-04-02T08:48:59.751Z,52.44
2018-04-02T08:51:28.079Z,51.56
2018-04-02T08:53:56.420Z,51.67
2018-04-02T08:56:24.799Z,52.78
2018-04-02T08:58:53.177Z,51.27
2018-04-02T09:01:21.495Z,52.89
2018-04-02T09:03:49.837Z,51.39
2018-04-02T09:06:18.315Z,49.97
2018-04-02T09:08:46.669Z,49.68
2018-04-02T09:11:15.071Z,49.61
2018-04-02T09:13:43.406Z,48.64
2018-04-02T09:16:11.716Z,50.20
2018-04-02T09:18:40.061Z,48.83
2018-04-02T09:21:08.362Z,47.65
2018-04-02T09:23:36.708Z,46.92
2018-04-02T09:26:05.026Z,46.03
2018-04-02T09:28:33.357Z,46.92
2018-04-02T09:31:01.679Z,47.08
2018-04-02T09:33:30.016Z,46.13
2018-04-02T09:35:58.435Z,45.60
2018-04-02T09:38:26.762Z,44.76
2018-04-02T09:40:55.107Z,45.13
2018-04-02T09:43:23.471Z,44.70
2018-04-02T09:45:51.863Z,43.75
2018-04-02T09:48:20.199Z,43.10
2018-04-02T09:50:48.486Z,42.61
2018-04-02T09:53:16.842Z,43.21
2018-04-02T09:55:45.185Z,43.03
2018-04-02T09:58:13.538Z,42.05
2018-04-02T10:00:41.868Z,41.62
2018-04-02T10:03:10.176Z,42.11
2018-04-02T10:05:38.509Z,42.69
2018-04-02T10:08:06.851Z,42.24
2018-04-02T10:10:35.198Z,40.53
2018-04-02T10:13:03.621Z,40.31
2018-04-02T10:15:32.032Z,39.46
2018-04-02T10:18:00.339Z,40.89
2018-04-02T10:20:28.754Z,40.11
2018-04-02T10:22:57.052Z,40.10
2018-04-02T10:25:25.506Z,41.31
2018-04-02T10:27:53.862Z,39.72
2018-04-02T10:30:22.361Z,39.67
2018-04-02T10:32:50.722Z,39.79
2018-04-02T10:35:19.356Z,39.61
2018-04-02T10:37:47.736Z,40.49
2018-04-02T10:40:16.087Z,36.90
2018-04-02T10:42:44.499Z,36.81
2018-04-02T10:45:12.835Z,35.04
2018-04-02T10:47:41.558Z,36.48
2018-04-02T10:50:09.863Z,36.72
2018-04-02T10:52:38.216Z,38.05
2018-04-02T10:55:06.575Z,38.26
2018-04-02T10:57:35.065Z,35.94
2018-04-02T11:00:03.362Z,34.04
2018-04-02T11:02:31.699Z,33.57
2018-04-02T11:05:00.063Z,32.95
2018-04-02T11:07:28.406Z,32.59
2018-04-02T11:09:56.848Z,34.65
2018-04-02T11:12:25.209Z,33.30
2018-04-02T11:14:53.575Z,33.86
2018-04-02T11:17:21.922Z,33.52
2018-04-02T11:19:50.237Z,33.24
2018-04-02T11:22:18.661Z,33.02
2018-04-02T11:24:46.959Z,31.48
2018-04-02T11:27:15.296Z,31.50
2018-04-02T11:29:43.612Z,29.98
2018-04-02T11:32:11.950Z,29.32
2018-04-02T11:34:40.261Z,29.48
2018-04-02T11:37:08.670Z,29.65
2018-04-02T11:39:36.983Z,29.86
2018-04-02T11:42:05.353Z,28.44
2018-04-02T11:44:33.706Z,29.84
2018-04-02T11:47:02.023Z,28.82
2018-04-02T11:49:30.355Z,28.61
2018-04-02T11:51:58.671Z,27.03
2018-04-02T11:56:54.386Z,24.49
2018-04-02T11:59:22.749Z,24.08
2018-04-02T12:01:51.063Z,23.14
2018-04-02T12:04:19.523Z,23.88
2018-04-02T12:06:47.846Z,23.88
2018-04-02T12:09:16.193Z,22.56
2018-04-02T12:11:44.509Z,22.20
2018-04-02T12:14:12.899Z,21.76
2018-04-02T12:16:41.210Z,21.57
2018-04-02T12:19:09.582Z,21.07
2018-04-02T12:21:38.687Z,20.54
2018-04-02T12:24:07.032Z,20.17
2018-04-02T12:26:36.542Z,20.02
2018-04-02T12:29:04.880Z,19.71
2018-04-02T12:31:33.348Z,19.63
2018-04-02T12:34:01.688Z,18.12
2018-04-02T12:36:30.012Z,17.08
2018-04-02T12:38:58.343Z,16.25
2018-04-02T12:41:26.927Z,17.80
2018-04-02T12:43:56.969Z,16.06
2018-04-02T12:46:25.298Z,15.31
2018-04-02T12:48:57.180Z,15.61
2018-04-02T12:51:25.538Z,16.13
2018-04-02T12:53:53.850Z,15.83
2018-04-02T12:56:22.264Z,16.05
2018-04-02T12:58:50.606Z,15.55
2018-04-02T13:01:18.948Z,15.99
2018-04-02T13:03:47.300Z,15.75
2018-04-02T13:06:15.631Z,15.28
2018-04-02T13:08:43.942Z,15.33
2018-04-02T13:11:12.305Z,14.12
2018-04-02T13:13:41.206Z,13.83
2018-04-02T13:16:09.539Z,13.30
2018-04-02T13:18:37.872Z,13.58
2018-04-02T13:21:06.207Z,13.15
2018-04-02T13:23:34.568Z,13.52
2018-04-02T13:26:02.917Z,12.31
2018-04-02T13:28:31.448Z,12.26
2018-04-02T13:30:59.824Z,11.51
2018-04-02T13:33:28.148Z,11.72
2018-04-02T13:35:56.974Z,11.19
2018-04-02T13:38:25.352Z,9.64
2018-04-02T13:40:53.702Z,9.90
2018-04-02T13:43:22.033Z,11.26
2018-04-02T13:45:50.355Z,10.55
2018-04-02T13:48:18.699Z,10.16
2018-04-02T13:50:47.011Z,10.93
2018-04-02T13:53:15.365Z,9.73
2018-04-02T13:55:43.656Z,8.63
2018-04-02T13:58:12.011Z,10.45
2018-04-02T14:00:40.333Z,10.15
2018-04-02T14:03:08.678Z,9.78
2018-04-02T14:05:37.002Z,9.54
2018-04-02T14:08:05.354Z,10.37
2018-04-02T14:10:33.666Z,11.18
2018-04-02T14:13:02.091Z,10.43
2018-04-02T14:15:30.394Z,9.98
2018-04-02T14:17:58.738Z,9.68
2018-04-02T14:20:27.047Z,10.89
2018-04-02T14:22:55.399Z,12.01
2018-04-02T14:25:23.768Z,12.90
2018-04-02T14:27:52.103Z,12.93
2018-04-02T14:30:20.423Z,12.92
2018-04-02T14:32:48.801Z,13.06
2018-04-02T14:35:17.134Z,12.54
2018-04-02T14:37:45.518Z,11.13
2018-04-02T14:40:13.828Z,11.21
2018-04-02T14:42:42.246Z,10.41
2018-04-02T14:45:10.562Z,9.66
2018-04-02T14:47:38.874Z,10.02
2018-04-02T14:50:07.201Z,9.89
2018-04-02T14:52:35.512Z,9.16
2018-04-02T14:55:03.863Z,8.84
2018-04-02T14:57:32.207Z,10.41
2018-04-02T15:00:00.543Z,10.67
2018-04-02T15:02:28.875Z,8.72
2018-04-02T15:04:57.219Z,8.92
2018-04-02T15:07:25.521Z,7.46
2018-04-02T15:09:53.860Z,9.54
2018-04-02T15:12:22.203Z,8.68
2018-04-02T15:14:50.574Z,10.84
2018-04-02T15:17:18.898Z,10.31
2018-04-02T15:19:47.230Z,12.74
2018-04-02T15:22:16.423Z,13.78
2018-04-02T15:24:44.768Z,15.09
2018-04-02T15:27:13.088Z,13.65
2018-04-02T15:29:41.446Z,15.35
2018-04-02T15:32:09.769Z,15.27
2018-04-02T15:34:38.116Z,16.52
2018-04-02T15:37:06.434Z,16.15
2018-04-02T15:39:34.876Z,16.67
2018-04-02T15:42:03.189Z,16.82
2018-04-02T15:44:31.568Z,16.81
2018-04-02T15:46:59.909Z,15.89
2018-04-02T15:49:28.247Z,18.50
2018-04-02T15:51:56.578Z,21.28
2018-04-02T15:54:24.894Z,21.05
2018-04-02T15:56:53.250Z,21.72
2018-04-02T15:59:21.568Z,21.49
2018-04-02T16:01:49.920Z,21.63
2018-04-02T16:04:18.260Z,21.89
2018-04-02T16:06:46.595Z,20.96
2018-04-02T16:09:14.916Z,20.89
2018-04-02T16:11:43.266Z,22.43
2018-04-02T16:14:11.586Z,23.33
2018-04-02T16:16:39.972Z,20.35
2018-04-02T16:19:08.293Z,20.63
2018-04-02T16:21:36.614Z,20.57
2018-04-02T16:24:05.001Z,20.61
2018-04-02T16:26:33.487Z,20.85
2018-04-02T16:29:01.785Z,21.77
2018-04-02T16:31:30.115Z,21.92
2018-04-02T16:33:58.464Z,21.96
2018-04-02T16:36:26.887Z,21.00
2018-04-02T16:38:55.234Z,21.33
2018-04-02T16:41:23.650Z,22.25
2018-04-02T16:43:52.042Z,21.95
2018-04-02T16:46:20.410Z,21.27
2018-04-02T16:48:48.822Z,21.71
2018-04-02T16:51:17.126Z,21.90
2018-04-02T16:53:45.553Z,20.08
2018-04-02T16:56:13.880Z,19.97
2018-04-02T16:58:42.215Z,21.54
2018-04-02T17:01:10.592Z,22.37
2018-04-02T17:03:38.923Z,24.23
2018-04-02T17:06:07.323Z,25.90
2018-04-02T17:08:35.669Z,26.78
2018-04-02T17:11:04.175Z,27.32
2018-04-02T17:13:32.573Z,28.08
2018-04-02T17:16:00.887Z,28.61
2018-04-02T17:18:29.432Z,28.73
2018-04-02T17:20:57.784Z,29.46
2018-04-02T17:23:26.095Z,29.41
2018-04-02T17:25:54.494Z,30.19
2018-04-02T17:28:22.792Z,30.07
2018-04-02T17:30:51.220Z,30.15
2018-04-02T17:33:19.527Z,30.14
2018-04-02T17:35:47.952Z,30.45
2018-04-02T17:38:16.262Z,30.87
2018-04-02T17:40:44.712Z,31.09
2018-04-02T17:43:13.024Z,31.14
2018-04-02T17:45:41.384Z,31.18
2018-04-02T17:48:09.713Z,31.56
2018-04-02T17:50:38.055Z,31.78
2018-04-02T17:53:06.387Z,32.09
2018-04-02T17:55:34.719Z,31.94
2018-04-02T17:58:03.028Z,31.67
2018-04-02T18:00:31.371Z,31.97
2018-04-02T18:02:59.682Z,32.21
2018-04-02T18:05:28.077Z,32.40
2018-04-02T18:07:56.422Z,31.67
2018-04-02T18:10:24.755Z,31.66
2018-04-02T18:12:53.427Z,31.99
2018-04-02T18:15:21.409Z,31.77
2018-04-02T18:17:49.769Z,32.14
2018-04-02T18:20:18.143Z,32.08
2018-04-02T18:22:46.640Z,32.43
2018-04-02T18:25:14.948Z,31.85
2018-04-02T18:27:43.302Z,32.55
2018-04-02T18:30:11.352Z,32.21
2018-04-02T18:32:39.689Z,32.11
2018-04-02T18:35:08.101Z,32.04
2018-04-02T18:37:36.450Z,31.86
2018-04-02T18:40:04.771Z,31.96
2018-04-02T18:42:33.130Z,31.66
2018-04-02T18:45:01.472Z,31.87
2018-04-02T18:47:29.787Z,32.35
2018-04-02T18:49:58.843Z,32.35
2018-04-02T18:52:27.194Z,32.65
2018-04-02T18:54:55.537Z,32.57
2018-04-02T18:57:23.908Z,32.80
2018-04-02T18:59:52.286Z,33.03
2018-04-02T19:02:20.626Z,33.40
2018-04-02T19:04:49.058Z,33.35
2018-04-02T19:07:17.419Z,33.57
2018-04-02T19:09:45.754Z,33.88
2018-04-02T19:12:14.090Z,34.28
2018-04-02T19:14:42.428Z,34.19
2018-04-02T19:17:10.831Z,34.55
2018-04-02T19:19:39.255Z,34.73
2018-04-02T19:22:07.572Z,35.01
2018-04-02T19:24:35.928Z,34.88
2018-04-02T19:27:04.256Z,35.06
2018-04-02T19:29:32.607Z,35.14
2018-04-02T19:32:00.922Z,35.36
2018-04-02T19:34:29.484Z,35.29
2018-04-02T19:36:57.801Z,36.11
2018-04-02T19:39:26.132Z,36.42
2018-04-02T19:41:54.454Z,36.21
2018-04-02T19:44:22.777Z,36.37
2018-04-02T19:46:51.181Z,36.59
2018-04-02T19:49:19.483Z,36.60
2018-04-02T19:51:47.813Z,36.82
2018-04-02T19:54:16.204Z,36.60
2018-04-02T19:56:44.547Z,37.02
2018-04-02T19:59:12.959Z,37.18
2018-04-02T20:01:41.348Z,37.11
2018-04-02T20:04:09.656Z,37.68
2018-04-02T20:06:38.148Z,37.60
2018-04-02T20:09:06.470Z,37.54
2018-04-02T20:11:34.807Z,37.66
2018-04-02T20:14:03.117Z,37.34
2018-04-02T20:16:31.457Z,37.32
2018-04-02T20:18:59.779Z,37.51
2018-04-02T20:21:28.121Z,37.54
2018-04-02T20:23:56.459Z,37.41
2018-04-02T20:26:24.787Z,37.30
2018-04-02T20:28:53.279Z,37.76
2018-04-02T20:31:21.611Z,37.83
2018-04-02T20:33:49.921Z,37.78
2018-04-02T20:36:18.275Z,38.12
2018-04-02T20:38:46.719Z,38.45
2018-04-02T20:41:15.030Z,38.20
2018-04-02T20:43:43.366Z,38.37
2018-04-02T20:46:11.735Z,38.46
2018-04-02T20:48:40.064Z,38.47
2018-04-02T20:51:08.392Z,38.69
2018-04-02T20:53:36.839Z,38.88
2018-04-02T20:56:05.255Z,38.86
2018-04-02T20:58:33.599Z,39.11
2018-04-02T21:01:02.103Z,39.51
2018-04-02T21:03:30.439Z,39.50
2018-04-02T21:05:58.791Z,39.50
2018-04-02T21:08:27.130Z,39.87
2018-04-02T21:10:55.517Z,39.80
2018-04-02T21:13:23.870Z,39.95
2018-04-02T21:15:52.172Z,40.52
2018-04-02T21:18:20.568Z,40.38
2018-04-02T21:20:48.890Z,40.64
2018-04-02T21:23:17.308Z,40.87
2018-04-02T21:25:45.696Z,41.23
2018-04-02T21:28:14.056Z,41.63
2018-04-02T21:30:42.460Z,43.07
2018-04-02T21:33:10.807Z,42.23
2018-04-02T21:35:39.147Z,42.09
2018-04-02T21:38:07.455Z,43.00
2018-04-02T21:40:35.803Z,42.68
2018-04-02T21:43:04.136Z,42.50
2018-04-02T21:45:32.473Z,42.76
2018-04-02T21:48:00.781Z,42.87
2018-04-02T21:50:29.110Z,43.66
2018-04-02T21:52:57.422Z,43.43
2018-04-02T21:55:25.770Z,43.25
2018-04-02T21:57:54.111Z,43.26
2018-04-02T22:00:22.475Z,43.75
2018-04-02T22:02:50.876Z,43.79
2018-04-02T22:05:19.244Z,43.66
2018-04-02T22:07:47.611Z,43.70
2018-04-02T22:10:15.950Z,43.94
2018-04-02T22:12:44.367Z,44.54
2018-04-02T22:15:12.697Z,45.04
2018-04-02T22:17:41.146Z,44.79
2018-04-02T22:20:09.523Z,45.01
2018-04-02T22:22:37.831Z,44.97
2018-04-02T22:25:06.250Z,45.31
2018-04-02T22:27:34.638Z,45.63
2018-04-02T22:30:03.125Z,45.29
2018-04-02T22:32:31.438Z,45.78
2018-04-02T22:34:59.792Z,46.09
2018-04-02T22:37:28.141Z,46.00
2018-04-02T22:39:56.406Z,46.35
2018-04-02T22:42:24.767Z,46.58
2018-04-02T22:44:53.085Z,47.09
2018-04-02T22:47:21.459Z,47.36
2018-04-02T22:49:49.844Z,47.41
2018-04-02T22:52:18.187Z,47.10
2018-04-02T22:54:46.600Z,47.11
2018-04-02T22:57:14.932Z,46.78
2018-04-02T22:59:43.248Z,46.74
2018-04-02T23:02:11.638Z,46.38
2018-04-02T23:04:39.947Z,46.07
2018-04-02T23:07:08.378Z,46.16
2018-04-02T23:09:36.692Z,45.92
2018-04-02T23:12:05.026Z,48.04
2018-04-02T23:14:33.364Z,47.21
2018-04-02T23:17:01.789Z,46.27
2018-04-02T23:19:30.110Z,45.59
2018-04-02T23:21:58.450Z,45.33
2018-04-02T23:24:26.784Z,44.76
2018-04-02T23:26:55.116Z,44.30
2018-04-02T23:29:23.435Z,44.57
2018-04-02T23:31:51.862Z,43.69
2018-04-02T23:34:20.175Z,43.47
2018-04-02T23:36:48.615Z,43.45
2018-04-02T23:39:16.991Z,44.02
2018-04-02T23:41:45.303Z,43.98
2018-04-02T23:44:13.643Z,43.96
2018-04-02T23:46:41.944Z,44.01
2018-04-02T23:49:10.287Z,44.20
2018-04-02T23:51:38.603Z,44.11
2018-04-02T23:54:06.940Z,44.39
2018-04-02T23:56:35.338Z,43.58
2018-04-02T23:59:03.680Z,44.22
